createdAt,value
2022-11-24T00:00:24.723Z,93297.59
2022-11-24T00:03:11.682Z,93300.31
2022-11-24T00:06:07.400Z,93301.47
2022-11-24T00:08:55.358Z,93296.03
2022-11-24T00:11:42.181Z,93297.22
2022-11-24T00:14:28.993Z,93300.72
2022-11-24T00:17:15.777Z,93292.97
2022-11-24T00:20:02.615Z,93297.22
2022-11-24T00:22:49.389Z,93298.78
2022-11-24T00:25:36.181Z,93293.72
2022-11-24T00:28:23.003Z,93297.59
2022-11-24T00:31:31.198Z,93296.84
2022-11-24T00:34:18.079Z,93297.59
2022-11-24T00:37:04.917Z,93293.72
2022-11-24T00:39:51.688Z,93294.13
2022-11-24T00:42:38.522Z,93304.59
2022-11-24T00:45:25.324Z,93309.25
2022-11-24T00:48:12.171Z,93303.81
2022-11-24T00:51:10.225Z,93309.25
2022-11-24T00:53:58.266Z,93307.28
2022-11-24T00:56:45.143Z,93309.59
2022-11-24T00:59:32.606Z,93320.84
2022-11-24T01:02:19.492Z,93315.03
2022-11-24T01:05:06.675Z,93320.06
2022-11-24T01:07:53.487Z,93326.28
2022-11-24T01:10:40.340Z,93332.50
2022-11-24T01:13:27.135Z,93334.41
2022-11-24T01:16:22.408Z,93341.75
2022-11-24T01:19:09.225Z,93350.66
2022-11-24T01:21:56.034Z,93348.69
2022-11-24T01:24:42.912Z,93357.97
2022-11-24T01:27:29.698Z,93354.03
2022-11-24T01:30:16.694Z,93354.75
2022-11-24T01:33:03.539Z,93352.31
2022-11-24T01:35:50.290Z,93357.28
2022-11-24T01:38:37.102Z,93363.78
2022-11-24T01:41:25.222Z,93360.69
2022-11-24T01:44:27.231Z,93369.16
2022-11-24T01:47:38.535Z,93373.72
2022-11-24T01:50:25.773Z,93369.81
2022-11-24T01:53:14.381Z,93370.97
2022-11-24T01:56:01.574Z,93387.38
2022-11-24T01:58:51.251Z,93390.91
2022-11-24T02:01:38.191Z,93391.63
2022-11-24T02:04:30.652Z,93390.34
2022-11-24T02:07:18.614Z,93389.97
2022-11-24T02:10:16.151Z,93395.38
2022-11-24T02:13:04.162Z,93397.28
2022-11-24T02:15:53.097Z,93393.41
2022-11-24T02:18:41.646Z,93395.88
2022-11-24T02:21:28.462Z,93392.84
2022-11-24T02:24:40.132Z,93399.03
2022-11-24T02:27:27.090Z,93403.84
2022-11-24T02:30:13.847Z,93406.97
2022-11-24T02:33:01.034Z,93401.56
2022-11-24T02:35:48.141Z,93410.88
2022-11-24T02:38:35.937Z,93407.47
2022-11-24T02:41:25.495Z,93405.56
2022-11-24T02:44:16.355Z,93418.16
2022-11-24T02:47:05.574Z,93413.22
2022-11-24T02:49:52.438Z,93409.28
2022-11-24T02:52:39.434Z,93408.88
2022-11-24T02:55:26.576Z,93405.13
2022-11-24T02:58:14.887Z,93401.28
2022-11-24T03:01:01.656Z,93399.19
2022-11-24T03:03:48.528Z,93395.44
2022-11-24T03:06:35.291Z,93396.34
2022-11-24T03:09:22.056Z,93387.00
2022-11-24T03:12:08.855Z,93395.50
2022-11-24T03:14:55.711Z,93391.09
2022-11-24T03:17:42.792Z,93396.06
2022-11-24T03:20:30.039Z,93400.69
2022-11-24T03:23:16.864Z,93395.19
2022-11-24T03:26:12.246Z,93396.66
2022-11-24T03:28:59.004Z,93404.06
2022-11-24T03:31:45.860Z,93413.69
2022-11-24T03:34:33.022Z,93413.41
2022-11-24T03:37:19.975Z,93413.81
2022-11-24T03:40:07.196Z,93415.75
2022-11-24T03:42:53.956Z,93422.28
2022-11-24T03:45:47.810Z,93418.41
2022-11-24T03:48:34.676Z,93430.09
2022-11-24T03:51:21.426Z,93428.44
2022-11-24T03:54:08.281Z,93428.94
2022-11-24T03:56:55.112Z,93440.47
2022-11-24T03:59:42.213Z,93441.59
2022-11-24T04:02:29.068Z,93438.75
2022-11-24T04:05:16.054Z,93447.22
2022-11-24T04:08:05.406Z,93452.13
2022-11-24T04:10:53.799Z,93448.72
2022-11-24T04:13:40.542Z,93461.13
2022-11-24T04:16:27.489Z,93470.94
2022-11-24T04:19:14.599Z,93460.91
2022-11-24T04:22:01.444Z,93469.28
2022-11-24T04:24:48.199Z,93467.31
2022-11-24T04:27:36.345Z,93459.69
2022-11-24T04:30:24.584Z,93463.50
2022-11-24T04:33:12.316Z,93460.41
2022-11-24T04:35:59.153Z,93470.50
2022-11-24T04:39:23.122Z,93470.84
2022-11-24T04:41:52.809Z,93480.81
2022-11-24T04:44:39.578Z,93476.94
2022-11-24T04:47:27.452Z,93473.44
2022-11-24T04:50:14.224Z,93478.22
2022-11-24T04:53:00.984Z,93481.72
2022-11-24T04:55:47.742Z,93482.84
2022-11-24T04:58:35.059Z,93480.47
2022-11-24T05:01:21.870Z,93472.59
2022-11-24T05:04:14.575Z,93481.53
2022-11-24T05:07:01.352Z,93493.03
2022-11-24T05:10:07.023Z,93494.47
2022-11-24T05:12:56.167Z,93500.66
2022-11-24T05:15:43.084Z,93494.84
2022-11-24T05:18:30.022Z,93490.59
2022-11-24T05:21:16.904Z,93498.69
2022-11-24T05:24:03.991Z,93488.25
2022-11-24T05:26:50.770Z,93483.13
2022-11-24T05:29:37.535Z,93488.19
2022-11-24T05:32:24.378Z,93493.13
2022-11-24T05:35:11.769Z,93487.78
2022-11-24T05:37:58.906Z,93499.88
2022-11-24T05:40:45.778Z,93501.56
2022-11-24T05:43:32.566Z,93498.84
2022-11-24T05:46:19.445Z,93502.38
2022-11-24T05:49:06.252Z,93497.25
2022-11-24T05:51:53.020Z,93511.09
2022-11-24T05:54:39.918Z,93513.88
2022-11-24T05:57:26.757Z,93512.78
2022-11-24T06:00:14.929Z,93507.50
2022-11-24T06:03:02.340Z,93506.09
2022-11-24T06:05:49.232Z,93508.66
2022-11-24T06:08:36.234Z,93505.03
2022-11-24T06:11:23.053Z,93502.91
2022-11-24T06:14:11.442Z,93513.84
2022-11-24T06:16:58.544Z,93515.47
2022-11-24T06:19:47.899Z,93516.75
2022-11-24T06:22:34.875Z,93521.53
2022-11-24T06:25:21.747Z,93525.06
2022-11-24T06:28:08.580Z,93515.50
2022-11-24T06:30:55.381Z,93514.94
2022-11-24T06:33:42.208Z,93526.84
2022-11-24T06:36:29.006Z,93524.78
2022-11-24T06:39:15.840Z,93531.09
2022-11-24T06:42:02.689Z,93527.72
2022-11-24T06:44:49.690Z,93531.69
2022-11-24T06:47:37.019Z,93541.31
2022-11-24T06:50:24.629Z,93529.78
2022-11-24T06:53:13.694Z,93541.88
2022-11-24T06:56:01.985Z,93540.81
2022-11-24T06:58:52.201Z,93540.25
2022-11-24T07:01:39.069Z,93539.84
2022-11-24T07:04:25.904Z,93543.75
2022-11-24T07:07:12.839Z,93550.03
2022-11-24T07:09:59.857Z,93543.56
2022-11-24T07:12:46.776Z,93548.25
2022-11-24T07:15:33.907Z,93547.47
2022-11-24T07:18:20.691Z,93554.88
2022-11-24T07:21:07.478Z,93556.09
2022-11-24T07:23:56.097Z,93554.22
2022-11-24T07:26:42.932Z,93564.75
2022-11-24T07:29:29.723Z,93573.72
2022-11-24T07:32:16.488Z,93569.88
2022-11-24T07:35:03.621Z,93569.56
2022-11-24T07:37:50.627Z,93576.13
2022-11-24T07:40:37.454Z,93580.03
2022-11-24T07:43:24.221Z,93573.88
2022-11-24T07:46:14.036Z,93576.97
2022-11-24T07:49:00.862Z,93566.19
2022-11-24T07:51:47.656Z,93576.28
2022-11-24T07:54:34.730Z,93570.91
2022-11-24T07:57:21.803Z,93577.53
2022-11-24T08:00:09.353Z,93579.94
2022-11-24T08:02:56.280Z,93577.56
2022-11-24T08:06:07.805Z,93573.38
2022-11-24T08:08:49.846Z,93581.16
2022-11-24T08:11:36.747Z,93584.31
2022-11-24T08:14:23.772Z,93588.72
2022-11-24T08:17:10.641Z,93598.72
2022-11-24T08:19:57.548Z,93604.06
2022-11-24T08:22:44.706Z,93595.16
2022-11-24T08:25:32.764Z,93603.31
2022-11-24T08:28:19.782Z,93592.84
2022-11-24T08:31:14.919Z,93585.50
2022-11-24T08:34:03.536Z,93595.22
2022-11-24T08:36:51.689Z,93594.88
2022-11-24T08:39:38.464Z,93603.00
2022-11-24T08:42:25.290Z,93602.97
2022-11-24T08:45:20.797Z,93608.81
2022-11-24T08:48:08.879Z,93610.38
2022-11-24T08:50:56.785Z,93616.63
2022-11-24T08:53:44.010Z,93616.69
2022-11-24T08:56:32.822Z,93622.53
2022-11-24T08:59:19.652Z,93632.19
2022-11-24T09:02:06.880Z,93635.31
2022-11-24T09:04:53.770Z,93649.31
2022-11-24T09:07:40.609Z,93648.53
2022-11-24T09:10:27.488Z,93642.75
2022-11-24T09:13:14.494Z,93638.13
2022-11-24T09:16:06.358Z,93634.97
2022-11-24T09:19:11.324Z,93639.50
2022-11-24T09:21:58.176Z,93649.25
2022-11-24T09:24:45.225Z,93637.84
2022-11-24T09:27:32.479Z,93633.25
2022-11-24T09:30:20.341Z,93633.56
2022-11-24T09:33:07.102Z,93640.41
2022-11-24T09:35:53.881Z,93630.25
2022-11-24T09:38:41.153Z,93634.63
2022-11-24T09:41:50.206Z,93635.03
2022-11-24T09:44:36.984Z,93647.22
2022-11-24T09:47:45.477Z,93648.78
2022-11-24T09:50:35.906Z,93660.75
2022-11-24T09:53:34.185Z,93664.22
2022-11-24T09:56:23.465Z,93661.59
2022-11-24T09:59:18.328Z,93655.56
2022-11-24T10:02:12.003Z,93662.22
2022-11-24T10:04:59.157Z,93671.44
2022-11-24T10:08:14.551Z,93678.53
2022-11-24T10:11:06.235Z,93687.63
2022-11-24T10:14:05.986Z,93692.72
2022-11-24T10:16:59.847Z,93679.28
2022-11-24T10:20:19.121Z,93673.59
2022-11-24T10:23:39.474Z,93690.16
2022-11-24T10:27:09.926Z,93695.34
2022-11-24T10:29:57.199Z,93685.97
2022-11-24T10:32:47.585Z,93699.78
2022-11-24T10:35:48.260Z,93701.31
2022-11-24T10:38:43.786Z,93689.88
2022-11-24T10:41:43.967Z,93697.34
2022-11-24T10:44:30.839Z,93690.72
2022-11-24T10:47:22.826Z,93697.56
2022-11-24T10:50:32.578Z,93717.09
2022-11-24T10:53:24.624Z,93720.16
2022-11-24T10:56:11.572Z,93705.63
2022-11-24T10:59:20.580Z,93705.56
2022-11-24T11:02:32.619Z,93699.09
2022-11-24T11:05:43.609Z,93708.22
2022-11-24T11:08:32.432Z,93707.66
2022-11-24T11:11:30.085Z,93713.38
2022-11-24T11:14:35.746Z,93701.16
2022-11-24T11:17:33.492Z,93691.13
2022-11-24T11:20:32.398Z,93698.47
2022-11-24T11:23:22.395Z,93709.34
2022-11-24T11:26:34.335Z,93696.19
2022-11-24T11:35:39.112Z,93702.53
2022-11-24T11:38:33.756Z,93693.06
2022-11-24T11:41:26.235Z,93702.47
2022-11-24T11:44:43.826Z,93705.91
2022-11-24T11:47:41.286Z,93709.22
2022-11-24T11:54:04.215Z,93701.22
2022-11-24T11:57:06.903Z,93700.91
2022-11-24T12:00:18.127Z,93703.91
2022-11-24T12:03:33.409Z,93707.06
2022-11-24T12:06:38.603Z,93728.84
2022-11-24T12:09:51.145Z,93725.22
2022-11-24T12:12:46.476Z,93726.09
2022-11-24T12:15:42.303Z,93723.75
2022-11-24T12:18:57.529Z,93724.16
2022-11-24T12:21:57.604Z,93715.00
2022-11-24T12:24:53.384Z,93712.13
2022-11-24T12:27:53.843Z,93723.91
2022-11-24T12:30:51.302Z,93721.84
2022-11-24T12:34:01.148Z,93719.81
2022-11-24T12:37:25.668Z,93716.34
2022-11-24T12:40:22.314Z,93721.03
2022-11-24T12:43:32.622Z,93725.97
2022-11-24T12:46:41.241Z,93736.53
2022-11-24T12:49:46.312Z,93740.22
2022-11-24T12:52:37.939Z,93746.56
2022-11-24T12:55:25.597Z,93757.97
2022-11-24T12:58:18.314Z,93756.56
2022-11-24T13:01:28.116Z,93755.34
2022-11-24T13:04:34.779Z,93751.13
2022-11-24T13:07:43.758Z,93762.16
2022-11-24T13:10:56.162Z,93749.53
2022-11-24T13:14:02.228Z,93758.09
2022-11-24T13:20:22.076Z,93747.41
2022-11-24T13:23:24.286Z,93752.84
2022-11-24T13:26:16.122Z,93757.34
2022-11-24T13:29:23.859Z,93758.06
2022-11-24T13:32:11.914Z,93753.69
2022-11-24T13:35:04.651Z,93754.09
2022-11-24T13:37:52.762Z,93749.69
2022-11-24T13:40:49.849Z,93749.78
2022-11-24T13:44:16.076Z,93754.53
2022-11-24T13:47:24.552Z,93755.88
2022-11-24T13:50:21.587Z,93750.34
2022-11-24T13:53:15.624Z,93760.25
2022-11-24T13:56:17.346Z,93756.50
2022-11-24T13:59:18.691Z,93769.22
2022-11-24T14:02:22.932Z,93768.38
2022-11-24T14:05:14.630Z,93767.53
2022-11-24T14:08:01.983Z,93774.84
2022-11-24T14:10:48.856Z,93777.78
2022-11-24T14:13:35.758Z,93770.78
2022-11-24T14:16:24.241Z,93765.56
2022-11-24T14:19:11.347Z,93762.44
2022-11-24T14:21:58.415Z,93766.72
2022-11-24T14:24:51.445Z,93772.22
2022-11-24T14:27:39.116Z,93771.13
2022-11-24T14:30:26.296Z,93772.22
2022-11-24T14:33:13.427Z,93776.66
2022-11-24T14:36:00.653Z,93769.47
2022-11-24T14:38:47.735Z,93779.34
2022-11-24T14:41:34.561Z,93781.75
2022-11-24T14:44:59.267Z,93780.56
2022-11-24T14:47:46.170Z,93780.25
2022-11-24T14:50:33.072Z,93772.91
2022-11-24T14:53:26.169Z,93777.59
2022-11-24T14:56:19.233Z,93771.03
2022-11-24T14:59:22.263Z,93776.16
2022-11-24T15:02:48.350Z,93785.16
2022-11-24T15:05:56.815Z,93784.34
2022-11-24T15:08:47.014Z,93785.53
2022-11-24T15:11:35.102Z,93788.63
2022-11-24T15:14:38.854Z,93785.53
2022-11-24T15:17:28.753Z,93784.34
2022-11-24T15:20:41.764Z,93775.00
2022-11-24T15:23:29.775Z,93773.41
2022-11-24T15:26:16.575Z,93772.97
2022-11-24T15:29:03.382Z,93776.84
2022-11-24T15:31:52.804Z,93782.19
2022-11-24T15:34:39.899Z,93781.38
2022-11-24T15:37:30.065Z,93774.38
2022-11-24T15:40:21.509Z,93783.22
2022-11-24T15:43:35.199Z,93791.72
2022-11-24T15:46:22.197Z,93788.16
2022-11-24T15:49:09.048Z,93789.69
2022-11-24T15:51:55.932Z,93790.25
2022-11-24T15:54:42.691Z,93785.66
2022-11-24T15:57:29.668Z,93785.63
2022-11-24T16:00:22.392Z,93799.91
2022-11-24T16:03:44.511Z,93785.53
2022-11-24T16:06:24.763Z,93786.28
2022-11-24T16:09:16.624Z,93784.72
2022-11-24T16:12:03.830Z,93792.38
2022-11-24T16:14:50.761Z,93797.00
2022-11-24T16:17:37.689Z,93799.25
2022-11-24T16:20:25.033Z,93794.94
2022-11-24T16:23:12.037Z,93811.44
2022-11-24T16:25:58.946Z,93814.06
2022-11-24T16:28:45.965Z,93806.97
2022-11-24T16:31:33.251Z,93809.53
2022-11-24T16:34:20.145Z,93801.03
2022-11-24T16:37:07.011Z,93801.81
2022-11-24T16:39:53.844Z,93811.38
2022-11-24T16:42:40.757Z,93811.56
2022-11-24T16:45:27.662Z,93812.41
2022-11-24T16:48:14.487Z,93810.63
2022-11-24T16:51:06.411Z,93815.63
2022-11-24T16:53:58.467Z,93816.81
2022-11-24T16:56:45.277Z,93812.16
2022-11-24T16:59:32.168Z,93805.75
2022-11-24T17:02:19.176Z,93806.75
2022-11-24T17:05:06.479Z,93818.00
2022-11-24T17:07:53.358Z,93807.13
2022-11-24T17:10:40.191Z,93804.06
2022-11-24T17:13:27.005Z,93794.94
2022-11-24T17:16:16.009Z,93811.28
2022-11-24T17:19:03.219Z,93806.66
2022-11-24T17:21:50.100Z,93800.00
2022-11-24T17:24:37.101Z,93801.47
2022-11-24T17:27:24.149Z,93807.09
2022-11-24T17:30:12.138Z,93816.06
2022-11-24T17:32:58.998Z,93810.31
2022-11-24T17:35:45.833Z,93809.81
2022-11-24T17:38:32.745Z,93817.16
2022-11-24T17:41:20.068Z,93808.69
2022-11-24T17:44:08.675Z,93804.13
2022-11-24T17:46:55.491Z,93806.47
2022-11-24T17:49:42.374Z,93792.88
2022-11-24T17:52:32.206Z,93808.34
2022-11-24T17:55:18.986Z,93812.59
2022-11-24T17:58:05.812Z,93806.53
2022-11-24T18:00:53.464Z,93803.34
2022-11-24T18:03:41.474Z,93804.66
2022-11-24T18:06:28.819Z,93795.72
2022-11-24T18:09:15.693Z,93786.41
2022-11-24T18:12:02.759Z,93785.63
2022-11-24T18:14:49.529Z,93787.78
2022-11-24T18:17:36.283Z,93785.41
2022-11-24T18:20:23.131Z,93785.00
2022-11-24T18:23:09.915Z,93791.56
2022-11-24T18:26:00.821Z,93785.50
2022-11-24T18:28:47.744Z,93792.53
2022-11-24T18:31:35.951Z,93786.94
2022-11-24T18:34:24.753Z,93785.09
2022-11-24T18:37:13.584Z,93788.16
2022-11-24T18:40:00.474Z,93787.88
2022-11-24T18:42:47.316Z,93795.91
2022-11-24T18:45:34.188Z,93798.19
2022-11-24T18:48:22.711Z,93792.00
2022-11-24T18:51:14.444Z,93786.66
2022-11-24T18:54:03.034Z,93787.50
2022-11-24T18:56:49.879Z,93786.78
2022-11-24T18:59:36.893Z,93785.59
2022-11-24T19:02:23.864Z,93784.09
2022-11-24T19:05:10.694Z,93784.75
2022-11-24T19:07:57.571Z,93789.47
2022-11-24T19:10:45.292Z,93790.09
2022-11-24T19:13:32.185Z,93792.16
2022-11-24T19:16:20.341Z,93794.13
2022-11-24T19:19:08.636Z,93794.44
2022-11-24T19:21:55.460Z,93802.53
2022-11-24T19:24:42.641Z,93796.13
2022-11-24T19:27:29.706Z,93797.41
2022-11-24T19:30:17.199Z,93793.00
2022-11-24T19:33:04.033Z,93793.22
2022-11-24T19:36:10.683Z,93783.75
2022-11-24T19:38:58.604Z,93783.69
2022-11-24T19:41:45.515Z,93797.41
2022-11-24T19:44:32.596Z,93799.38
2022-11-24T19:47:19.560Z,93794.31
2022-11-24T19:50:10.418Z,93794.31
2022-11-24T19:52:57.500Z,93790.25
2022-11-24T19:55:45.453Z,93789.31
2022-11-24T19:58:32.740Z,93794.16
2022-11-24T20:01:20.926Z,93787.78
2022-11-24T20:04:10.388Z,93787.25
2022-11-24T20:06:57.286Z,93791.38
2022-11-24T20:09:44.144Z,93796.06
2022-11-24T20:12:32.635Z,93782.22
2022-11-24T20:15:20.755Z,93786.84
2022-11-24T20:18:07.667Z,93781.84
2022-11-24T20:20:54.540Z,93779.16
2022-11-24T20:23:42.219Z,93786.44
2022-11-24T20:26:32.016Z,93793.41
2022-11-24T20:29:19.616Z,93791.50
2022-11-24T20:32:06.518Z,93797.22
2022-11-24T20:34:53.452Z,93789.66
2022-11-24T20:37:40.291Z,93797.81
2022-11-24T20:40:27.379Z,93792.00
2022-11-24T20:43:14.775Z,93787.75
2022-11-24T20:46:10.415Z,93792.69
2022-11-24T20:48:58.337Z,93785.34
2022-11-24T20:51:47.650Z,93788.81
2022-11-24T20:54:35.040Z,93786.41
2022-11-24T20:57:22.017Z,93785.44
2022-11-24T21:00:09.319Z,93787.69
2022-11-24T21:02:57.615Z,93786.97
2022-11-24T21:05:44.417Z,93781.84
2022-11-24T21:08:35.707Z,93786.59
2022-11-24T21:11:23.751Z,93788.25
2022-11-24T21:14:10.855Z,93786.25
2022-11-24T21:16:57.788Z,93783.28
2022-11-24T21:19:44.679Z,93777.19
2022-11-24T21:22:31.517Z,93780.09
2022-11-24T21:25:18.310Z,93772.44
2022-11-24T21:28:05.249Z,93774.59
2022-11-24T21:30:52.147Z,93782.41
2022-11-24T21:33:44.816Z,93771.94
2022-11-24T21:36:34.111Z,93774.44
2022-11-24T21:39:20.996Z,93778.78
2022-11-24T21:42:07.912Z,93777.97
2022-11-24T21:44:54.821Z,93772.09
2022-11-24T21:47:42.404Z,93767.63
2022-11-24T21:50:29.247Z,93773.09
2022-11-24T21:53:16.023Z,93761.47
2022-11-24T21:56:05.689Z,93759.59
2022-11-24T21:58:54.826Z,93767.03
2022-11-24T22:01:41.765Z,93764.06
2022-11-24T22:04:28.624Z,93763.22
2022-11-24T22:07:15.482Z,93769.84
2022-11-24T22:10:02.364Z,93764.72
2022-11-24T22:12:49.153Z,93762.16
2022-11-24T22:15:35.934Z,93763.03
2022-11-24T22:18:22.745Z,93765.50
2022-11-24T22:21:23.858Z,93760.31
2022-11-24T22:24:10.907Z,93764.50
2022-11-24T22:26:57.825Z,93761.25
2022-11-24T22:29:44.685Z,93755.34
2022-11-24T22:32:31.527Z,93757.38
2022-11-24T22:35:18.356Z,93765.16
2022-11-24T22:38:05.206Z,93776.94
2022-11-24T22:40:52.591Z,93782.47
2022-11-24T22:43:40.787Z,93789.16
2022-11-24T22:46:29.947Z,93783.56
2022-11-24T22:49:16.722Z,93784.91
2022-11-24T22:52:03.573Z,93789.56
2022-11-24T22:54:50.419Z,93788.53
2022-11-24T22:57:37.238Z,93784.69
2022-11-24T23:00:24.141Z,93785.25
2022-11-24T23:03:11.009Z,93781.69
2022-11-24T23:06:02.467Z,93776.09
2022-11-24T23:08:50.450Z,93775.09
2022-11-24T23:11:41.385Z,93773.59
2022-11-24T23:14:28.812Z,93780.00
2022-11-24T23:17:15.662Z,93777.34
2022-11-24T23:20:02.569Z,93766.06
2022-11-24T23:22:49.379Z,93780.00
2022-11-24T23:25:36.215Z,93771.63
2022-11-24T23:28:23.051Z,93767.06
2022-11-24T23:31:12.578Z,93764.88
2022-11-24T23:34:01.949Z,93763.72
2022-11-24T23:36:48.754Z,93761.59
2022-11-24T23:39:35.597Z,93769.78
2022-11-24T23:42:22.519Z,93774.94
2022-11-24T23:45:11.070Z,93777.56
2022-11-24T23:47:57.966Z,93775.91
2022-11-24T23:50:45.157Z,93776.50
2022-11-24T23:53:33.258Z,93782.50
2022-11-24T23:56:25.411Z,93789.16
2022-11-24T23:59:12.488Z,93787.41
